Hopkinton, Rhode Island
Current Conditions -  °F | °C
As of 2:53 AM on Friday 19 Dec 2014 (Local Time) from KWST Reporting Station
Overcast Overcast  
Wind Chill: 35°   Ceiling: 5500
Heat Index: 35°   Visibility: 10mi
Dew Point: 26°   Wind: 0mph
Humidity: 70%   Direction: NA
Pressure: 29.92"   Gusts: NA
Location:  41.46°N, 71.78°W
Report Text: KWST 190753Z AUTO 00000KT 10SM OVC055 02/M03 A2992 RMK AO2 SLP131 T00171033
Loading
Personal Weather Stations






























Interactive Weather Map New forecast layout! Learn more

10-Day Weather Forecast

Advertisements
Track Severe Weather on mobile